Time;durP1;ratioP1;P1;durP2;ratioP2;P2;SDS_P1;SDS_P2;PMS_P1;PMS_P2;Temp;Humidity;BMP_temperature;BMP_pressure;BME280_temperature;BME280_humidity;BME280_pressure;Samples;Min_cycle;Max_cycle;Signal;HPM_P1;HPM_P2
2022/12/27 00:01:46;;;;;;;;;3.75;2.00;;;;;9.55;54.46;102108.53;5041943;28;45455;-65
2022/12/27 00:04:12;;;;;;;;;5.25;2.75;;;;;9.56;54.47;102114.63;5051323;28;45954;-65
2022/12/27 00:06:38;;;;;;;;;2.00;2.00;;;;;9.57;54.68;102112.00;5039301;28;45391;-64
2022/12/27 00:09:04;;;;;;;;;2.00;2.00;;;;;9.60;54.67;102116.38;5042387;28;45546;-64
2022/12/27 00:11:30;;;;;;;;;4.25;3.25;;;;;9.60;54.54;102109.41;5053769;28;45364;-65
2022/12/27 00:13:58;;;;;;;;;3.50;1.75;;;;;9.64;54.61;102118.13;5042125;28;45928;-63
2022/12/27 00:16:23;;;;;;;;;3.50;2.00;;;;;9.65;54.57;102117.22;5039505;28;46381;-64
2022/12/27 00:18:51;;;;;;;;;6.00;2.75;;;;;9.67;54.63;102120.72;5045436;28;45291;-65
2022/12/27 00:21:17;;;;;;;;;3.75;3.50;;;;;9.69;54.54;102130.31;5043312;28;45261;-65
2022/12/27 00:23:45;;;;;;;;;4.25;2.00;;;;;9.74;54.78;102116.34;5041201;28;46739;-64
2022/12/27 00:26:13;;;;;;;;;3.25;3.00;;;;;9.75;54.68;102125.94;5053381;28;46409;-64
2022/12/27 00:28:39;;;;;;;;;3.50;3.00;;;;;9.76;54.54;102128.56;5033504;28;45476;-64
2022/12/27 00:31:04;;;;;;;;;3.00;3.00;;;;;9.76;54.56;102128.56;5028378;28;45282;-65
2022/12/27 00:33:32;;;;;;;;;7.00;2.00;;;;;9.77;54.60;102125.06;5044917;28;45419;-66
2022/12/27 00:35:59;;;;;;;;;2.75;2.00;;;;;9.73;54.57;102125.06;5041332;28;45440;-65
2022/12/27 00:38:24;;;;;;;;;3.00;2.00;;;;;9.74;54.64;102135.53;5048928;28;45343;-65
2022/12/27 00:40:50;;;;;;;;;3.25;2.25;;;;;9.72;54.73;102129.44;5044704;28;45927;-64
2022/12/27 00:43:15;;;;;;;;;3.00;3.00;;;;;9.69;54.55;102124.22;5049745;28;45889;-65
2022/12/27 00:45:42;;;;;;;;;4.25;2.00;;;;;9.73;54.56;102132.91;5053760;28;45500;-64
2022/12/27 00:48:08;;;;;;;;;4.50;2.75;;;;;9.70;54.55;102128.53;5041658;28;45337;-66
2022/12/27 00:50:33;;;;;;;;;4.00;2.00;;;;;9.67;54.57;102128.56;5039702;28;66778;-65
2022/12/27 00:52:58;;;;;;;;;8.00;3.75;;;;;9.66;54.82;102132.03;5048332;28;46369;-66
2022/12/27 00:55:24;;;;;;;;;4.00;3.00;;;;;9.66;54.87;102140.75;5045768;28;50785;-65
2022/12/27 00:57:49;;;;;;;;;6.25;3.00;;;;;9.67;54.94;102145.13;5043895;28;45651;-65
2022/12/27 01:00:15;;;;;;;;;8.50;3.00;;;;;9.67;54.79;102145.13;5049642;28;48358;-65
2022/12/27 01:02:40;;;;;;;;;2.00;2.00;;;;;9.67;54.93;102146.88;5047794;28;46286;-65
2022/12/27 01:05:06;;;;;;;;;6.25;3.75;;;;;9.63;54.77;102145.09;5042875;28;64436;-65
2022/12/27 01:07:31;;;;;;;;;7.25;4.00;;;;;9.64;54.80;102149.47;5037675;28;45400;-66
2022/12/27 01:09:57;;;;;;;;;9.75;7.75;;;;;9.61;54.69;102146.84;5051014;28;45273;-65
2022/12/27 01:12:22;;;;;;;;;13.00;9.00;;;;;9.60;55.03;102145.13;5025852;28;71776;-66
2022/12/27 01:14:47;;;;;;;;;11.75;8.50;;;;;9.61;54.84;102152.09;5047980;28;66219;-65
2022/12/27 01:17:13;;;;;;;;;11.00;10.00;;;;;9.63;54.88;102156.47;5047027;28;53261;-66
2022/12/27 01:19:38;;;;;;;;;6.00;5.50;;;;;9.62;54.96;102152.09;5044288;28;55913;-65
2022/12/27 01:22:04;;;;;;;;;6.75;5.00;;;;;9.62;55.05;102159.94;5039263;28;45268;-66
2022/12/27 01:24:30;;;;;;;;;7.25;6.25;;;;;9.60;54.94;102150.38;5048366;28;45761;-66
2022/12/27 01:26:55;;;;;;;;;15.75;10.00;;;;;9.60;54.99;102147.75;5048917;28;45510;-66
2022/12/27 01:29:21;;;;;;;;;15.00;10.50;;;;;9.57;55.09;102148.59;5048579;28;48743;-65
2022/12/27 01:31:48;;;;;;;;;13.25;10.75;;;;;9.58;55.30;102152.97;5041556;28;61930;-66
2022/12/27 01:34:15;;;;;;;;;8.25;7.00;;;;;9.59;55.30;102153.84;5041318;28;45470;-66
2022/12/27 01:36:40;;;;;;;;;9.00;5.25;;;;;9.59;55.08;102153.84;5055501;28;45306;-67
2022/12/27 01:39:07;;;;;;;;;6.75;3.00;;;;;9.59;55.10;102153.84;5042519;28;45387;-65
2022/12/27 01:44:48;;;;;;;;;3.00;3.00;;;;;9.58;55.40;102165.16;5051132;28;45257;-65
2022/12/27 01:47:34;;;;;;;;;4.25;2.00;;;;;9.59;55.25;102167.75;5049959;28;45312;-65
2022/12/27 01:50:23;;;;;;;;;5.25;3.25;;;;;9.60;55.24;102168.66;5049181;28;45581;-65
2022/12/27 01:52:51;;;;;;;;;4.75;4.00;;;;;9.61;55.19;102167.75;5044397;28;46136;-66
2022/12/27 01:55:23;;;;;;;;;3.50;2.75;;;;;9.61;55.20;102170.38;5051281;28;45452;-65
2022/12/27 01:57:51;;;;;;;;;2.50;2.50;;;;;9.59;55.35;102173.00;5042971;28;45466;-66
2022/12/27 02:00:16;;;;;;;;;5.25;3.75;;;;;9.60;55.32;102174.75;5051929;28;45571;-65
2022/12/27 02:02:42;;;;;;;;;4.25;2.00;;;;;9.61;55.41;102173.84;5054678;28;52626;-66
2022/12/27 02:05:09;;;;;;;;;6.00;3.00;;;;;9.64;55.53;102173.00;5045599;28;45456;-65
2022/12/27 02:07:44;;;;;;;;;7.50;2.00;;;;;9.61;55.19;102178.22;5042738;28;45430;-65
2022/12/27 02:10:10;;;;;;;;;2.75;2.50;;;;;9.63;55.36;102186.94;5055370;28;45501;-66
2022/12/27 02:12:36;;;;;;;;;2.00;1.00;;;;;9.58;55.44;102180.81;5044568;28;60297;-65
2022/12/27 02:15:03;;;;;;;;;2.25;2.25;;;;;9.56;55.58;102187.81;5047096;28;60078;-65
2022/12/27 02:17:29;;;;;;;;;5.75;2.00;;;;;9.53;55.49;102185.22;5055379;28;45392;-66
2022/12/27 02:20:05;;;;;;;;;4.25;2.75;;;;;9.54;55.46;102190.41;5044707;28;45287;-66
2022/12/27 02:25:54;;;;;;;;;3.50;2.75;;;;;9.51;55.54;102182.59;5049264;28;45858;-64
2022/12/27 02:28:31;;;;;;;;;5.50;2.00;;;;;9.50;55.62;102179.09;5050787;28;45462;-65
2022/12/27 02:31:26;;;;;;;;;4.25;2.00;;;;;9.56;55.71;102174.72;5043216;28;45379;-66
2022/12/27 02:33:52;;;;;;;;;6.75;3.00;;;;;9.56;55.74;102166.88;5049363;28;45372;-65
2022/12/27 02:36:28;;;;;;;;;2.00;2.00;;;;;9.56;55.92;102172.13;5043554;28;60674;-65
2022/12/27 02:38:56;;;;;;;;;5.00;3.00;;;;;9.56;55.54;102166.88;5032008;28;45553;-65
2022/12/27 02:53:03;;;;;;;;;3.00;3.00;;;;;9.45;55.95;102165.13;5050741;28;45653;-65
2022/12/27 02:57:07;;;;;;;;;2.00;2.00;;;;;9.45;55.95;102166.88;5041065;28;46102;-65
2022/12/27 02:58:41;;;;;;;;;7.00;3.00;;;;;9.44;56.00;102176.47;5045458;28;45208;-65
2022/12/27 03:04:32;;;;;;;;;3.50;3.00;;;;;9.43;55.81;102187.78;5045770;28;45421;-66
2022/12/27 03:07:10;;;;;;;;;2.75;2.75;;;;;9.40;56.02;102198.25;5043902;28;46136;-65
2022/12/27 03:16:11;;;;;;;;;6.00;3.00;;;;;9.48;56.02;102191.28;5047770;28;45383;-65
2022/12/27 03:18:45;;;;;;;;;10.50;3.50;;;;;9.47;55.98;102194.78;5047327;28;45963;-66
2022/12/27 03:26:59;;;;;;;;;3.50;2.00;;;;;9.44;56.21;102186.06;5049718;28;45338;-65
2022/12/27 03:35:05;;;;;;;;;4.75;1.50;;;;;9.50;56.28;102193.91;5045183;28;45392;-65
2022/12/27 03:43:09;;;;;;;;;3.75;2.00;;;;;9.45;55.85;102193.03;5038423;28;47303;-65
2022/12/27 03:43:27;;;;;;;;;2.75;2.00;;;;;9.48;56.31;102198.25;5047696;28;45510;-68
2022/12/27 03:49:10;;;;;;;;;5.50;2.00;;;;;9.49;56.20;102198.25;5053742;28;45454;-65
2022/12/27 03:52:01;;;;;;;;;3.00;2.00;;;;;9.48;56.12;102199.13;5050992;28;45393;-65
2022/12/27 03:54:30;;;;;;;;;4.00;2.75;;;;;9.45;56.27;102187.78;5025726;28;45294;-66
2022/12/27 03:56:59;;;;;;;;;4.00;2.50;;;;;9.44;56.28;102193.91;5042513;28;45547;-65
2022/12/27 03:59:24;;;;;;;;;4.00;2.50;;;;;9.44;56.32;102199.13;5043651;28;45360;-66
2022/12/27 04:01:50;;;;;;;;;2.75;1.25;;;;;9.43;56.41;102198.25;5040985;28;46168;-66
2022/12/27 04:04:15;;;;;;;;;5.75;2.75;;;;;9.44;56.31;102202.59;5050435;28;63486;-66
2022/12/27 04:06:40;;;;;;;;;3.25;2.50;;;;;9.44;56.27;102188.69;5040578;28;57834;-66
2022/12/27 04:36:25;;;;;;;;;4.50;3.00;;;;;9.44;56.22;102205.22;5043367;28;45423;-67
2022/12/27 04:38:50;;;;;;;;;2.75;2.75;;;;;9.45;56.44;102206.09;5046162;28;46308;-65
2022/12/27 04:55:24;;;;;;;;;3.75;3.00;;;;;9.42;56.25;102180.84;5045996;28;45374;-64
2022/12/27 04:57:50;;;;;;;;;3.25;3.00;;;;;9.39;56.58;102188.66;5045124;28;45305;-64
2022/12/27 05:03:04;;;;;;;;;4.25;2.00;;;;;9.38;56.45;102184.28;5048725;28;45284;-64
2022/12/27 05:05:29;;;;;;;;;2.00;2.00;;;;;9.41;56.33;102191.28;5028197;28;46396;-65
2022/12/27 05:16:08;;;;;;;;;3.75;2.50;;;;;9.38;56.42;102193.88;5044353;28;45742;-64
2022/12/27 05:18:33;;;;;;;;;3.00;3.00;;;;;9.35;56.58;102192.16;5050618;28;48607;-64
2022/12/27 05:21:04;;;;;;;;;3.50;3.00;;;;;9.35;56.48;102197.38;5042529;28;52912;-64
2022/12/27 05:26:25;;;;;;;;;3.25;1.25;;;;;9.37;56.49;102193.03;5042759;28;45438;-64
2022/12/27 05:28:52;;;;;;;;;1.50;1.50;;;;;9.38;56.56;102191.28;5048223;28;46010;-64
2022/12/27 05:31:19;;;;;;;;;2.00;1.75;;;;;9.37;56.50;102193.03;5043297;28;45404;-64
2022/12/27 05:33:44;;;;;;;;;5.00;3.00;;;;;9.36;56.40;102188.66;5045628;28;45578;-64
2022/12/27 05:36:09;;;;;;;;;2.00;2.00;;;;;9.35;56.66;102186.94;5043200;28;68192;-64
2022/12/27 05:38:35;;;;;;;;;2.25;2.25;;;;;9.34;56.64;102186.91;5045816;28;45309;-64
2022/12/27 05:41:01;;;;;;;;;3.50;2.00;;;;;9.35;56.68;102186.94;5047980;28;45237;-64
2022/12/27 05:43:27;;;;;;;;;4.50;1.50;;;;;9.35;56.47;102184.31;5049567;28;45466;-66
2022/12/27 05:45:53;;;;;;;;;1.75;1.75;;;;;9.34;56.56;102190.41;5045423;28;45439;-65
2022/12/27 05:48:18;;;;;;;;;3.00;2.00;;;;;9.30;56.62;102183.44;5048327;28;48053;-65
2022/12/27 05:50:44;;;;;;;;;6.00;2.50;;;;;9.31;56.54;102183.44;5052285;28;45394;-65
2022/12/27 05:53:09;;;;;;;;;5.00;2.00;;;;;9.30;56.65;102184.28;5052431;28;58210;-66
2022/12/27 05:55:35;;;;;;;;;6.75;2.75;;;;;9.30;56.68;102186.91;5042515;28;45794;-65
2022/12/27 05:58:00;;;;;;;;;4.00;2.25;;;;;9.32;56.71;102174.72;5041417;28;61786;-65
2022/12/27 06:00:26;;;;;;;;;3.50;2.25;;;;;9.35;56.65;102168.63;5045747;28;57371;-64
2022/12/27 06:02:51;;;;;;;;;3.00;3.00;;;;;9.36;56.67;102162.53;5043037;28;45420;-65
2022/12/27 06:05:17;;;;;;;;;3.50;3.00;;;;;9.38;56.56;102157.31;5050560;28;45387;-65
2022/12/27 06:07:42;;;;;;;;;3.50;2.00;;;;;9.37;56.51;102158.19;5046661;28;45454;-67
2022/12/27 06:10:08;;;;;;;;;4.00;3.50;;;;;9.37;56.52;102150.34;5049815;28;45403;-66
2022/12/27 06:12:34;;;;;;;;;4.50;1.75;;;;;9.37;56.51;102153.84;5046464;28;45463;-66
2022/12/27 06:14:59;;;;;;;;;6.50;3.00;;;;;9.39;56.50;102167.75;5043742;28;45364;-65
2022/12/27 06:17:25;;;;;;;;;2.50;2.00;;;;;9.39;56.41;102159.91;5042566;28;61581;-65
2022/12/27 06:19:50;;;;;;;;;3.00;2.00;;;;;9.38;56.47;102165.16;5048548;28;45297;-65
2022/12/27 06:22:15;;;;;;;;;3.75;3.00;;;;;9.36;56.63;102162.53;5051761;28;45274;-65
2022/12/27 06:24:41;;;;;;;;;3.25;2.25;;;;;9.38;56.54;102159.91;5043619;28;59640;-65
2022/12/27 06:27:06;;;;;;;;;3.25;3.25;;;;;9.40;56.64;102164.28;5042743;28;45384;-65
2022/12/27 06:29:33;;;;;;;;;9.25;6.00;;;;;9.39;56.52;102162.53;5047230;28;59128;-64
2022/12/27 06:31:58;;;;;;;;;4.50;3.00;;;;;9.39;56.50;102162.53;5051992;28;45271;-64
2022/12/27 06:34:23;;;;;;;;;5.00;3.00;;;;;9.38;56.56;102168.63;5044973;28;47519;-66
2022/12/27 06:36:50;;;;;;;;;5.00;3.00;;;;;9.37;56.69;102166.03;5053009;28;55780;-66
2022/12/27 06:39:18;;;;;;;;;3.75;2.75;;;;;9.31;56.45;102162.53;5043533;28;45378;-64
2022/12/27 06:41:44;;;;;;;;;5.00;4.00;;;;;9.33;56.74;102165.16;5046905;28;45402;-65
2022/12/27 06:44:09;;;;;;;;;5.75;4.00;;;;;9.35;56.95;102166.03;5048030;28;45348;-65
2022/12/27 06:46:35;;;;;;;;;8.50;4.75;;;;;9.37;56.75;102166.03;5043906;28;45198;-65
2022/12/27 06:49:00;;;;;;;;;5.00;4.00;;;;;9.34;56.59;102160.78;5047905;28;45783;-64
2022/12/27 06:51:26;;;;;;;;;2.00;2.00;;;;;9.36;56.64;102167.75;5047667;28;45568;-66
2022/12/27 06:53:51;;;;;;;;;6.75;3.75;;;;;9.37;56.78;102163.41;5051700;28;66653;-65
2022/12/27 06:56:19;;;;;;;;;5.00;3.00;;;;;9.37;56.79;102166.88;5046287;28;45408;-64
2022/12/27 06:58:45;;;;;;;;;3.00;2.00;;;;;9.40;56.80;102161.69;5044959;28;45468;-65
2022/12/27 07:01:19;;;;;;;;;4.00;4.00;;;;;9.40;56.78;102159.06;5046004;28;45561;-64
2022/12/27 07:03:49;;;;;;;;;9.75;5.00;;;;;9.43;56.61;102161.66;5055496;28;45444;-66
2022/12/27 07:06:15;;;;;;;;;8.25;6.00;;;;;9.43;56.70;102155.56;5025091;28;45331;-64
2022/12/27 07:08:40;;;;;;;;;9.75;5.25;;;;;9.41;56.96;102158.19;5054556;28;45388;-64
2022/12/27 07:11:08;;;;;;;;;10.25;5.50;;;;;9.46;56.84;102163.41;5053051;28;45413;-64
2022/12/27 07:13:38;;;;;;;;;5.50;5.50;;;;;9.46;56.87;102173.88;5046593;28;46516;-64
2022/12/27 07:16:05;;;;;;;;;4.50;3.50;;;;;9.46;56.85;102166.91;5040915;28;45336;-65
2022/12/27 07:18:31;;;;;;;;;8.00;3.25;;;;;9.47;56.64;102171.25;5047067;28;45518;-64
2022/12/27 07:20:56;;;;;;;;;9.75;4.50;;;;;9.48;56.55;102172.13;5047094;28;58931;-64
2022/12/27 07:23:21;;;;;;;;;7.25;6.00;;;;;9.46;56.59;102172.13;5050460;28;46134;-64
2022/12/27 07:25:47;;;;;;;;;5.00;2.50;;;;;9.48;56.38;102187.81;5048604;28;45211;-64
2022/12/27 07:28:12;;;;;;;;;4.25;3.00;;;;;9.45;56.63;102180.81;5054222;28;45351;-64
2022/12/27 07:30:41;;;;;;;;;6.00;4.00;;;;;9.48;56.65;102193.88;5047940;28;45277;-64
2022/12/27 07:33:07;;;;;;;;;5.75;4.00;;;;;9.50;56.78;102188.66;5041826;28;60726;-64
2022/12/27 07:35:33;;;;;;;;;11.50;6.00;;;;;9.52;56.81;102192.16;5051533;28;45951;-64
2022/12/27 07:37:58;;;;;;;;;7.50;5.00;;;;;9.55;56.71;102191.31;5041458;28;45450;-65
2022/12/27 07:40:24;;;;;;;;;6.50;5.00;;;;;9.51;56.57;102179.97;5041057;28;45607;-64
2022/12/27 07:42:49;;;;;;;;;5.50;5.00;;;;;9.59;56.58;102183.44;5043186;28;46271;-65
2022/12/27 07:45:14;;;;;;;;;6.00;4.00;;;;;9.64;56.37;102183.47;5044458;28;62679;-65
2022/12/27 07:47:40;;;;;;;;;3.50;3.50;;;;;9.64;56.27;102180.84;5042184;28;45331;-63
2022/12/27 07:50:05;;;;;;;;;10.00;4.75;;;;;9.65;56.19;102193.91;5041911;28;66932;-64
2022/12/27 07:52:31;;;;;;;;;4.50;1.00;;;;;9.63;56.35;102179.97;5034643;28;46211;-65
2022/12/27 07:54:56;;;;;;;;;7.75;4.75;;;;;9.72;56.33;102188.69;5044784;28;45273;-64
2022/12/27 07:57:21;;;;;;;;;8.25;5.50;;;;;9.73;56.29;102191.28;5053234;28;58289;-64
2022/12/27 07:59:47;;;;;;;;;9.50;6.25;;;;;9.75;56.41;102186.94;5048889;28;52847;-64
2022/12/27 08:02:15;;;;;;;;;10.25;5.75;;;;;9.74;56.29;102193.06;5042523;28;46390;-64
2022/12/27 08:04:40;;;;;;;;;10.50;5.00;;;;;9.74;56.45;102181.69;5051926;28;45410;-63
2022/12/27 08:07:17;;;;;;;;;7.75;6.00;;;;;9.75;56.53;102186.94;5039168;28;45355;-64
2022/12/27 08:09:44;;;;;;;;;18.00;11.75;;;;;9.76;56.35;102186.06;5036074;28;45786;-64
2022/12/27 08:12:09;;;;;;;;;12.25;6.00;;;;;9.79;56.41;102187.81;5027674;28;47282;-65
2022/12/27 08:14:35;;;;;;;;;11.25;6.00;;;;;9.81;56.28;102186.94;5048228;28;45907;-64
2022/12/27 08:17:14;;;;;;;;;5.00;4.00;;;;;9.83;56.09;102190.44;5040676;28;45186;-64
2022/12/27 08:19:39;;;;;;;;;5.75;4.75;;;;;9.84;56.21;102192.19;5051660;28;45290;-64
2022/12/27 08:22:04;;;;;;;;;8.75;6.25;;;;;9.86;56.29;102186.94;5040182;28;46062;-64
2022/12/27 08:24:31;;;;;;;;;7.50;4.75;;;;;9.87;56.26;102189.53;5042046;28;67880;-65
2022/12/27 08:26:56;;;;;;;;;10.25;6.00;;;;;9.91;56.13;102187.78;5042318;28;45457;-64
2022/12/27 08:29:21;;;;;;;;;8.50;6.00;;;;;9.93;56.27;102193.88;5049892;28;45611;-64
2022/12/27 08:31:47;;;;;;;;;11.75;4.75;;;;;9.96;56.07;102195.66;5058576;28;48095;-64
2022/12/27 08:34:12;;;;;;;;;11.75;7.25;;;;;9.98;55.85;102199.13;5046136;28;47568;-64
2022/12/27 08:36:38;;;;;;;;;10.25;5.25;;;;;9.98;55.89;102200.00;5039996;28;60119;-65
2022/12/27 08:39:03;;;;;;;;;8.00;6.00;;;;;9.99;55.79;102203.50;5041656;28;45489;-65
2022/12/27 08:41:28;;;;;;;;;12.25;7.00;;;;;10.00;56.12;102202.59;5052086;28;68445;-65
2022/12/27 08:43:54;;;;;;;;;5.00;5.00;;;;;10.01;55.99;102204.38;5041411;28;45497;-64
2022/12/27 08:46:19;;;;;;;;;7.00;7.00;;;;;9.98;55.67;102204.34;5045210;28;53970;-64
2022/12/27 08:48:48;;;;;;;;;13.75;7.00;;;;;9.96;55.43;102212.19;5047380;28;60649;-65
2022/12/27 08:51:14;;;;;;;;;10.50;6.75;;;;;9.95;55.71;102217.44;5022523;28;48220;-66
2022/12/27 08:53:39;;;;;;;;;12.25;6.00;;;;;9.94;55.44;102215.72;5045876;28;45251;-65
2022/12/27 08:56:05;;;;;;;;;11.25;5.50;;;;;9.89;55.82;102203.47;5053387;28;54777;-63
2022/12/27 08:58:30;;;;;;;;;9.25;5.75;;;;;9.88;55.67;102207.00;5051077;28;45266;-64
2022/12/27 09:00:55;;;;;;;;;10.25;6.25;;;;;9.90;55.73;102204.38;5049195;28;53968;-63
2022/12/27 09:03:21;;;;;;;;;8.50;7.00;;;;;9.89;55.86;102215.69;5041649;28;45472;-64
2022/12/27 09:05:48;;;;;;;;;10.75;6.25;;;;;9.85;55.67;102217.44;5049954;28;45593;-63
2022/12/27 09:08:14;;;;;;;;;10.00;6.00;;;;;9.84;55.87;102225.28;5041601;28;45368;-64
2022/12/27 09:10:39;;;;;;;;;9.00;6.00;;;;;9.83;55.89;102227.03;5044539;28;47070;-65
2022/12/27 09:13:05;;;;;;;;;11.50;9.25;;;;;9.85;55.90;102230.50;5041389;28;45453;-64
2022/12/27 09:15:30;;;;;;;;;9.00;8.25;;;;;9.89;55.92;102229.63;5043691;28;45525;-65
2022/12/27 09:17:55;;;;;;;;;11.00;7.50;;;;;9.91;55.48;102229.63;5054157;28;59966;-64
2022/12/27 09:20:21;;;;;;;;;11.25;5.75;;;;;9.93;55.76;102227.03;5040687;28;46198;-64
2022/12/27 09:22:46;;;;;;;;;9.75;5.00;;;;;9.94;55.68;102220.94;5041071;28;45321;-65
2022/12/27 09:25:11;;;;;;;;;10.50;7.25;;;;;9.94;55.33;102220.94;5043469;28;52560;-65
2022/12/27 09:27:37;;;;;;;;;7.00;5.25;;;;;9.93;55.43;102216.56;5047485;28;60575;-65
2022/12/27 09:30:06;;;;;;;;;12.00;7.25;;;;;9.88;55.45;102214.84;5046692;28;46087;-65
2022/12/27 09:32:32;;;;;;;;;11.25;7.00;;;;;9.88;55.60;102222.69;5040904;28;45297;-64
2022/12/27 09:34:57;;;;;;;;;13.75;7.25;;;;;9.85;55.88;102222.66;5049023;28;45567;-64
2022/12/27 09:37:23;;;;;;;;;13.50;8.25;;;;;9.88;55.77;102234.88;5038863;28;59489;-63
2022/12/27 09:39:48;;;;;;;;;12.75;10.00;;;;;9.92;55.96;102241.00;5041110;28;68477;-65
2022/12/27 09:42:17;;;;;;;;;12.50;7.50;;;;;9.94;55.88;102236.63;5047319;28;45365;-63
2022/12/27 09:44:58;;;;;;;;;11.00;7.00;;;;;9.97;55.86;102236.59;5046606;28;45454;-63
2022/12/27 09:47:57;;;;;;;;;5.50;5.50;;;;;9.99;55.65;102245.34;5024840;28;45469;-64
2022/12/27 09:50:22;;;;;;;;;10.75;8.25;;;;;10.00;55.53;102239.22;5034838;28;46318;-65
2022/12/27 09:52:55;;;;;;;;;10.00;6.00;;;;;9.98;55.48;102241.84;5042730;28;45328;-64
2022/12/27 09:55:33;;;;;;;;;7.00;6.00;;;;;10.01;55.46;102238.38;5046492;28;45307;-63
2022/12/27 09:58:12;;;;;;;;;13.00;7.75;;;;;10.03;55.67;102242.72;5040351;28;45621;-65
2022/12/27 10:00:37;;;;;;;;;12.50;7.00;;;;;10.02;55.47;102224.41;5041001;28;46377;-63
2022/12/27 10:03:03;;;;;;;;;10.75;9.50;;;;;10.05;55.35;102237.47;5054418;28;64004;-65
2022/12/27 10:05:32;;;;;;;;;11.00;8.75;;;;;10.02;55.37;102229.63;5050024;28;45353;-66
2022/12/27 10:08:24;;;;;;;;;10.00;8.25;;;;;10.05;55.73;102227.88;5047282;28;45246;-64
2022/12/27 10:11:01;;;;;;;;;11.00;8.25;;;;;10.10;55.64;102234.88;5056789;28;45643;-65
2022/12/27 10:13:42;;;;;;;;;11.25;8.50;;;;;10.11;55.58;102229.66;5048667;28;45755;-65
2022/12/27 10:16:16;;;;;;;;;15.00;7.50;;;;;10.13;54.80;102222.66;5050126;28;45285;-64
2022/12/27 10:18:41;;;;;;;;;11.25;6.25;;;;;10.10;54.85;102217.44;5051693;28;46082;-63
2022/12/27 10:21:19;;;;;;;;;12.67;6.67;;;;;10.08;55.25;102220.03;5048790;28;46218;-63
2022/12/27 10:23:52;;;;;;;;;8.25;6.00;;;;;10.10;55.25;102219.19;5045024;28;45333;-63
2022/12/27 10:26:18;;;;;;;;;11.50;7.50;;;;;10.07;54.95;102215.69;5043825;28;45281;-64
2022/12/27 10:29:16;;;;;;;;;15.25;9.00;;;;;10.05;55.08;102225.25;5046848;28;45440;-63
2022/12/27 10:31:43;;;;;;;;;10.00;5.75;;;;;10.06;54.96;102226.16;5040935;28;45508;-65
2022/12/27 10:34:13;;;;;;;;;13.00;11.00;;;;;10.08;55.12;102221.78;5036035;28;45807;-65
2022/12/27 10:36:39;;;;;;;;;12.25;11.00;;;;;10.06;54.65;102210.47;5055766;28;45371;-65
2022/12/27 10:39:27;;;;;;;;;12.00;8.25;;;;;10.07;54.90;102207.84;5043328;28;45613;-64
2022/12/27 10:42:05;;;;;;;;;21.00;11.00;;;;;10.06;54.70;102206.09;5045844;28;47143;-64
2022/12/27 10:44:30;;;;;;;;;10.50;8.25;;;;;10.06;55.15;102206.09;5045764;28;45508;-64
2022/12/27 10:46:56;;;;;;;;;10.00;8.25;;;;;10.05;55.06;102200.88;5041148;28;59059;-65
2022/12/27 10:49:24;;;;;;;;;14.50;10.75;;;;;10.07;55.06;102210.47;5053183;28;45474;-64
2022/12/27 10:51:52;;;;;;;;;12.50;10.00;;;;;10.11;55.13;102213.06;5043848;28;46656;-65
2022/12/27 10:54:27;;;;;;;;;10.50;10.00;;;;;10.12;55.02;102199.97;5049914;28;45852;-65
2022/12/27 10:56:53;;;;;;;;;7.25;7.00;;;;;10.15;55.09;102205.22;5041254;28;45326;-65
2022/12/27 10:59:22;;;;;;;;;10.50;8.50;;;;;10.17;54.84;102216.53;5051903;28;45367;-64
2022/12/27 11:02:11;;;;;;;;;7.50;6.75;;;;;10.19;54.82;102209.56;5050158;28;45485;-65
2022/12/27 11:04:54;;;;;;;;;8.25;4.00;;;;;10.20;54.69;102211.31;5047737;28;45770;-64
2022/12/27 11:07:19;;;;;;;;;6.25;5.25;;;;;10.23;54.07;102206.09;5047434;28;45430;-64
2022/12/27 11:09:45;;;;;;;;;5.00;4.75;;;;;10.24;54.09;102205.19;5050016;28;64361;-65
2022/12/27 11:12:23;;;;;;;;;4.00;4.00;;;;;10.23;54.19;102206.09;5045059;28;45471;-65
2022/12/27 11:15:00;;;;;;;;;10.25;6.00;;;;;10.24;54.20;102194.72;5048353;28;45178;-64
2022/12/27 11:17:38;;;;;;;;;8.00;4.75;;;;;10.29;53.85;102194.72;5050269;28;45443;-64
2022/12/27 11:20:31;;;;;;;;;10.50;4.25;;;;;10.29;54.24;102199.06;5062762;28;45301;-64
2022/12/27 11:23:24;;;;;;;;;6.25;5.00;;;;;10.29;54.02;102192.13;5048165;28;46114;-64
2022/12/27 11:25:56;;;;;;;;;5.00;4.00;;;;;10.32;53.31;102176.41;5053859;28;45447;-64
2022/12/27 11:28:32;;;;;;;;;8.25;6.00;;;;;10.35;53.99;102180.78;5049635;28;45229;-65
2022/12/27 11:31:08;;;;;;;;;6.00;6.00;;;;;10.37;53.68;102165.94;5047877;28;45427;-64
2022/12/27 11:33:59;;;;;;;;;6.50;4.50;;;;;10.39;53.63;102161.56;5051793;28;46306;-65
2022/12/27 11:36:28;;;;;;;;;6.50;3.75;;;;;10.43;53.34;102148.47;5049187;28;45558;-66
2022/12/27 11:38:55;;;;;;;;;7.25;5.00;;;;;10.44;52.79;102146.72;5052767;28;45289;-64
2022/12/27 11:41:43;;;;;;;;;3.75;3.00;;;;;10.48;52.95;102137.13;5045657;28;45298;-65
2022/12/27 11:44:19;;;;;;;;;5.75;3.00;;;;;10.48;52.99;102124.88;5054616;28;47620;-64
2022/12/27 11:47:09;;;;;;;;;5.00;3.00;;;;;10.49;52.73;102129.25;5042937;28;45509;-64
2022/12/27 11:49:37;;;;;;;;;4.50;4.50;;;;;10.51;53.06;102124.03;5047120;28;45485;-65
2022/12/27 11:52:19;;;;;;;;;4.50;3.00;;;;;10.54;52.31;102130.13;5040002;28;45587;-64
2022/12/27 11:55:03;;;;;;;;;7.00;5.25;;;;;10.57;52.56;102122.25;5053084;28;45345;-64
2022/12/27 11:57:56;;;;;;;;;5.00;3.00;;;;;10.61;52.84;102123.97;5045790;28;45423;-65
2022/12/27 12:00:25;;;;;;;;;5.25;5.25;;;;;10.63;52.44;102127.44;5019669;28;45570;-65
2022/12/27 12:03:28;;;;;;;;;7.50;6.00;;;;;10.66;52.70;102138.78;5054484;28;45619;-64
2022/12/27 12:06:15;;;;;;;;;10.00;6.00;;;;;10.66;52.42;102129.19;5047250;28;48148;-64
2022/12/27 12:09:04;;;;;;;;;11.25;7.50;;;;;10.71;52.80;102127.44;5046908;28;45565;-64
2022/12/27 12:11:29;;;;;;;;;10.75;7.00;;;;;10.72;51.36;102134.38;5059088;28;45388;-64
2022/12/27 12:14:06;;;;;;;;;12.00;9.25;;;;;10.74;52.48;102135.25;5044635;28;45448;-64
2022/12/27 12:16:47;;;;;;;;;14.00;8.00;;;;;10.76;52.27;102130.88;5057179;28;46590;-65
2022/12/27 12:19:23;;;;;;;;;12.50;11.00;;;;;10.77;52.17;102134.38;5042099;28;45780;-64
2022/12/27 12:22:01;;;;;;;;;9.75;7.00;;;;;10.79;52.15;102137.84;5045260;28;45486;-64
2022/12/27 12:24:51;;;;;;;;;10.00;7.00;;;;;10.82;52.24;102132.59;5052934;28;48084;-64
2022/12/27 12:27:43;;;;;;;;;8.00;7.50;;;;;10.85;52.27;102127.34;5038771;28;45363;-65
2022/12/27 12:30:30;;;;;;;;;7.25;6.00;;;;;10.89;52.57;102117.69;5047494;28;45430;-65
2022/12/27 12:33:33;;;;;;;;;8.50;7.25;;;;;10.92;52.59;102115.06;5043555;28;45481;-64
2022/12/27 12:36:10;;;;;;;;;11.75;8.75;;;;;10.95;52.37;102108.06;5039944;28;45412;-63
2022/12/27 12:38:41;;;;;;;;;10.75;9.75;;;;;10.96;52.44;102098.44;5041548;28;45608;-64
2022/12/27 12:41:09;;;;;;;;;7.50;6.50;;;;;10.98;52.33;102099.34;5042135;28;45334;-64
2022/12/27 12:43:37;;;;;;;;;13.25;9.25;;;;;10.97;52.46;102094.97;5042038;28;45382;-65
2022/12/27 12:46:16;;;;;;;;;15.00;9.00;;;;;10.97;52.04;102093.22;5048770;28;45670;-63
2022/12/27 12:48:51;;;;;;;;;12.00;6.00;;;;;10.99;52.45;102086.19;5049436;28;46320;-65
2022/12/27 12:51:38;;;;;;;;;7.00;5.75;;;;;11.01;51.57;102089.72;5040678;28;45797;-63
2022/12/27 12:54:12;;;;;;;;;3.75;2.75;;;;;11.06;51.61;102081.78;5043486;28;45229;-64
2022/12/27 12:57:05;;;;;;;;;4.75;4.00;;;;;11.06;51.67;102080.94;5054416;28;45292;-64
2022/12/27 12:59:37;;;;;;;;;4.75;3.00;;;;;11.07;51.28;102077.44;5041546;28;46153;-63
2022/12/27 13:02:05;;;;;;;;;2.00;2.00;;;;;11.09;50.73;102073.91;5042504;28;45949;-64
2022/12/27 13:04:54;;;;;;;;;6.25;2.00;;;;;11.10;51.22;102061.69;5049532;28;45428;-65
2022/12/27 13:07:52;;;;;;;;;5.25;2.50;;;;;11.13;51.16;102070.38;4997554;28;45586;-65
2022/12/27 13:10:38;;;;;;;;;4.00;3.00;;;;;11.14;51.09;102056.41;5006559;28;45586;-65
2022/12/27 13:13:12;;;;;;;;;3.00;2.00;;;;;11.15;50.67;102052.91;5044450;28;45276;-67
2022/12/27 13:16:09;;;;;;;;;5.75;3.00;;;;;11.17;50.71;102051.16;5048718;28;45611;-62
2022/12/27 13:18:49;;;;;;;;;5.00;4.25;;;;;11.19;50.33;102046.78;5045623;28;46200;-64
2022/12/27 13:21:52;;;;;;;;;7.75;4.00;;;;;11.20;50.95;102045.88;5043332;28;46990;-64
2022/12/27 13:24:30;;;;;;;;;6.25;5.25;;;;;11.23;50.60;102042.38;5045449;28;45834;-63
2022/12/27 13:26:58;;;;;;;;;4.00;1.50;;;;;11.24;50.89;102041.47;5007643;28;45469;-65